Time;durP1;ratioP1;P1;durP2;ratioP2;P2;SDS_P1;SDS_P2;PMS_P1;PMS_P2;Temp;Humidity;BMP_temperature;BMP_pressure;BME280_temperature;BME280_humidity;BME280_pressure;Samples;Min_cycle;Max_cycle;Signal;HPM_P1;HPM_P2
2023/03/29 00:00:19;;;;;;;36.55;16.20;;;-4.80;75.00;;;;;;5076789;28;20020;-76
2023/03/29 00:02:47;;;;;;;37.85;15.20;;;-4.80;74.90;;;;;;5075293;28;20118;-79
2023/03/29 00:05:17;;;;;;;37.78;16.70;;;-4.80;75.80;;;;;;5076624;28;20023;-76
2023/03/29 00:07:43;;;;;;;38.25;17.98;;;-4.80;75.00;;;;;;5076600;28;20020;-77
2023/03/29 00:10:10;;;;;;;34.63;17.17;;;-4.90;75.00;;;;;;5075484;28;20028;-76
2023/03/29 00:12:37;;;;;;;27.00;12.40;;;-4.90;75.00;;;;;;5066158;28;20037;-80
2023/03/29 00:15:05;;;;;;;17.95;10.75;;;-4.90;75.00;;;;;;5055386;28;20579;-80
2023/03/29 00:17:31;;;;;;;27.40;13.07;;;-4.90;75.10;;;;;;5055071;28;20021;-77
2023/03/29 00:19:56;;;;;;;26.58;13.38;;;-4.90;75.60;;;;;;5056370;28;20029;-77
2023/03/29 00:22:22;;;;;;;25.65;11.40;;;-4.90;75.50;;;;;;5056167;28;20087;-77
2023/03/29 00:24:52;;;;;;;24.15;12.18;;;-4.90;75.60;;;;;;5056219;28;20040;-76
2023/03/29 00:27:20;;;;;;;28.33;13.80;;;-4.90;76.20;;;;;;5056373;28;20027;-79
2023/03/29 00:29:45;;;;;;;27.35;13.15;;;-5.00;76.80;;;;;;5056312;28;20017;-80
2023/03/29 00:32:11;;;;;;;26.75;12.15;;;-5.00;77.40;;;;;;5056147;28;20024;-75
2023/03/29 00:34:37;;;;;;;20.42;12.07;;;-5.10;77.70;;;;;;5056139;28;20020;-75
2023/03/29 00:37:08;;;;;;;18.45;9.77;;;-5.10;78.10;;;;;;5054676;28;20028;-78
2023/03/29 00:39:35;;;;;;;16.08;10.25;;;-5.10;78.60;;;;;;5054800;28;20478;-78
2023/03/29 00:42:01;;;;;;;20.33;9.95;;;-5.20;78.80;;;;;;5055949;28;20071;-75
2023/03/29 00:44:51;;;;;;;19.63;9.48;;;-5.20;79.60;;;;;;5056110;28;20063;-75
2023/03/29 00:47:25;;;;;;;21.23;10.38;;;-5.20;79.90;;;;;;5055867;28;20017;-77
2023/03/29 00:49:51;;;;;;;14.98;9.55;;;-5.20;79.70;;;;;;5055848;28;20022;-78
2023/03/29 00:52:20;;;;;;;19.17;10.90;;;-5.20;79.90;;;;;;5054410;28;20029;-77
2023/03/29 00:54:49;;;;;;;18.75;10.10;;;-5.30;80.00;;;;;;5055768;28;20025;-75
2023/03/29 00:57:17;;;;;;;17.42;9.32;;;-5.30;79.80;;;;;;5055792;28;20021;-75
2023/03/29 00:59:46;;;;;;;21.30;9.77;;;-5.30;79.70;;;;;;5054447;28;20040;-78
2023/03/29 01:02:14;;;;;;;13.45;8.40;;;-5.30;79.60;;;;;;5055011;28;20024;-75
2023/03/29 01:05:10;;;;;;;16.38;8.70;;;-5.40;79.70;;;;;;5055510;28;20415;-77
2023/03/29 01:07:57;;;;;;;17.42;9.80;;;-5.40;79.90;;;;;;5054142;28;20044;-78
2023/03/29 01:10:40;;;;;;;21.58;11.10;;;-5.40;81.00;;;;;;5055494;28;20029;-75
2023/03/29 01:13:10;;;;;;;43.80;17.85;;;-5.50;82.20;;;;;;5055493;28;20052;-78
2023/03/29 01:15:39;;;;;;;59.03;28.40;;;-5.50;83.50;;;;;;5055231;28;20033;-78
2023/03/29 01:18:05;;;;;;;45.95;22.00;;;-5.60;84.10;;;;;;5055218;28;20021;-78
2023/03/29 01:20:44;;;;;;;25.67;14.80;;;-5.60;85.30;;;;;;5055200;28;20086;-75
2023/03/29 01:23:16;;;;;;;23.45;15.60;;;-5.70;86.40;;;;;;5055539;28;20056;-76
2023/03/29 01:25:50;;;;;;;31.98;16.27;;;-5.80;87.70;;;;;;5055280;28;20025;-78
2023/03/29 01:28:21;;;;;;;43.05;22.02;;;-5.80;89.10;;;;;;5054041;28;20030;-76
2023/03/29 01:31:20;;;;;;;45.47;21.45;;;-5.90;89.90;;;;;;5054047;28;20024;-79
2023/03/29 01:33:55;;;;;;;66.05;29.73;;;-6.00;90.40;;;;;;5046600;28;20044;-78
2023/03/29 01:36:40;;;;;;;54.43;23.67;;;-6.00;90.80;;;;;;5055254;28;20509;-79
2023/03/29 01:39:06;;;;;;;31.85;16.40;;;-6.10;91.90;;;;;;5053834;28;20029;-76
2023/03/29 01:41:41;;;;;;;27.13;13.85;;;-6.10;91.80;;;;;;5054872;28;20379;-75
2023/03/29 01:44:18;;;;;;;25.87;13.13;;;-6.20;91.70;;;;;;5053516;28;20029;-75
2023/03/29 01:46:52;;;;;;;23.47;11.60;;;-6.20;92.20;;;;;;5055002;28;20017;-78
2023/03/29 01:49:36;;;;;;;23.93;12.00;;;-6.30;92.10;;;;;;5054821;28;20115;-75
2023/03/29 01:52:15;;;;;;;21.37;10.93;;;-6.40;92.90;;;;;;5054577;28;20100;-77
2023/03/29 01:54:51;;;;;;;28.27;11.93;;;-6.40;93.80;;;;;;5053358;28;20059;-74
2023/03/29 01:57:18;;;;;;;32.00;15.27;;;-6.50;94.30;;;;;;5053320;28;20424;-77
2023/03/29 01:59:46;;;;;;;29.27;13.60;;;-6.50;94.60;;;;;;5053330;28;20064;-74
2023/03/29 02:02:15;;;;;;;21.50;13.73;;;-6.50;95.80;;;;;;5054298;28;20028;-75
2023/03/29 02:04:46;;;;;;;29.33;13.80;;;-6.60;96.40;;;;;;5055171;28;20032;-75
2023/03/29 02:07:14;;;;;;;36.10;15.67;;;-6.60;96.50;;;;;;5074289;28;20016;-74
2023/03/29 02:09:41;;;;;;;35.83;16.27;;;-6.70;96.30;;;;;;5074342;28;20020;-74
2023/03/29 02:12:08;;;;;;;39.07;15.87;;;-6.70;96.20;;;;;;5074046;28;20013;-74
2023/03/29 02:14:34;;;;;;;32.00;14.90;;;-6.80;95.90;;;;;;5071747;28;20035;-77
2023/03/29 02:17:25;;;;;;;38.73;16.87;;;-6.80;96.50;;;;;;5072888;28;20021;-77
2023/03/29 02:19:56;;;;;;;30.90;14.20;;;-6.90;97.00;;;;;;5074218;28;20023;-75
2023/03/29 02:22:28;;;;;;;17.53;9.57;;;-7.00;96.40;;;;;;5073876;28;20398;-78
2023/03/29 02:24:57;;;;;;;27.00;12.68;;;-7.00;96.80;;;;;;5068348;28;20040;-75
2023/03/29 02:27:26;;;;;;;25.63;10.37;;;-7.10;97.70;;;;;;5054004;28;20025;-78
2023/03/29 02:29:52;;;;;;;15.60;10.10;;;-7.10;98.30;;;;;;5053991;28;20021;-75
2023/03/29 02:32:34;;;;;;;22.93;12.00;;;-7.20;98.90;;;;;;5053721;28;20067;-74
2023/03/29 02:35:12;;;;;;;27.73;13.90;;;-7.20;99.20;;;;;;5052450;28;20051;-75
2023/03/29 02:37:39;;;;;;;29.57;14.93;;;-7.30;99.80;;;;;;5053784;28;20024;-74
2023/03/29 02:40:06;;;;;;;35.23;15.70;;;-7.30;99.90;;;;;;5053769;28;20044;-75
2023/03/29 02:42:33;;;;;;;31.37;15.00;;;-7.30;99.90;;;;;;5053757;28;20126;-78
2023/03/29 02:45:01;;;;;;;31.60;15.37;;;-7.40;99.90;;;;;;5054052;28;20025;-74
2023/03/29 02:47:50;;;;;;;36.87;17.00;;;-7.40;99.90;;;;;;5073679;28;20048;-74
2023/03/29 02:50:16;;;;;;;35.07;16.83;;;-7.40;99.90;;;;;;5068416;28;20036;-78
2023/03/29 02:52:51;;;;;;;38.70;17.80;;;-7.40;99.90;;;;;;5073709;28;20020;-76
2023/03/29 02:55:19;;;;;;;44.77;21.53;;;-7.40;99.90;;;;;;5072365;28;20028;-74
2023/03/29 02:57:44;;;;;;;41.30;17.97;;;-7.50;99.90;;;;;;5073811;28;20020;-74
2023/03/29 03:00:13;;;;;;;46.23;19.80;;;-7.50;99.90;;;;;;5073758;28;20531;-78
2023/03/29 03:02:39;;;;;;;28.97;16.20;;;-7.50;99.90;;;;;;5073510;28;20072;-74
2023/03/29 03:05:05;;;;;;;29.40;16.13;;;-7.60;99.90;;;;;;5073801;28;20498;-74
2023/03/29 03:07:32;;;;;;;25.43;14.77;;;-7.60;99.90;;;;;;5072259;28;20469;-78
2023/03/29 03:09:58;;;;;;;26.63;14.03;;;-7.70;99.90;;;;;;5073480;28;20020;-79
2023/03/29 03:12:23;;;;;;;30.20;15.07;;;-7.70;99.90;;;;;;5072335;28;20094;-74
2023/03/29 03:14:49;;;;;;;28.73;16.07;;;-7.70;99.90;;;;;;5055325;28;20021;-74
2023/03/29 03:17:14;;;;;;;32.17;15.27;;;-7.70;99.90;;;;;;5053171;28;20021;-74
2023/03/29 03:19:40;;;;;;;32.00;16.47;;;-7.80;99.90;;;;;;5053223;28;20040;-78
2023/03/29 03:22:06;;;;;;;44.73;18.57;;;-7.90;99.90;;;;;;5053045;28;20067;-78
2023/03/29 03:24:32;;;;;;;29.77;14.20;;;-7.90;99.90;;;;;;5053138;28;20021;-79
2023/03/29 03:26:58;;;;;;;30.20;15.30;;;-7.90;99.90;;;;;;5052029;28;20029;-74
2023/03/29 03:29:24;;;;;;;27.93;15.63;;;-7.90;99.90;;;;;;5053250;28;20025;-78
2023/03/29 03:31:51;;;;;;;30.97;15.50;;;-7.90;99.90;;;;;;5051916;28;20013;-74
2023/03/29 03:34:18;;;;;;;35.47;18.80;;;-7.90;99.90;;;;;;5053115;28;20108;-74
2023/03/29 03:36:46;;;;;;;30.83;14.63;;;-7.90;99.90;;;;;;5053084;28;20097;-74
2023/03/29 03:39:13;;;;;;;33.67;15.90;;;-7.90;99.90;;;;;;5053157;28;20025;-77
2023/03/29 03:41:38;;;;;;;37.37;18.57;;;-8.00;99.90;;;;;;5053142;28;20036;-77
2023/03/29 03:44:04;;;;;;;29.20;16.10;;;-8.00;99.90;;;;;;5053306;28;20037;-75
2023/03/29 03:46:30;;;;;;;38.17;18.53;;;-8.00;99.90;;;;;;5051778;28;20021;-78
2023/03/29 03:48:56;;;;;;;37.33;17.83;;;-8.00;99.90;;;;;;5053387;28;20028;-75
2023/03/29 03:51:22;;;;;;;34.43;20.93;;;-8.00;99.90;;;;;;5053255;28;20108;-74
2023/03/29 03:53:48;;;;;;;32.63;16.23;;;-8.00;99.90;;;;;;5053408;28;20059;-78
2023/03/29 03:56:15;;;;;;;41.33;19.10;;;-8.10;99.90;;;;;;5053583;28;20022;-78
2023/03/29 03:58:40;;;;;;;35.63;18.57;;;-8.00;99.90;;;;;;5053888;28;20017;-78
2023/03/29 04:01:07;;;;;;;39.97;18.47;;;-8.00;99.90;;;;;;5053348;28;20483;-74
2023/03/29 04:03:33;;;;;;;31.17;16.13;;;-8.00;99.90;;;;;;5052793;28;20132;-76
2023/03/29 04:06:00;;;;;;;40.03;18.33;;;-8.00;99.90;;;;;;5052826;28;20103;-74
2023/03/29 04:08:26;;;;;;;36.80;17.67;;;-8.10;99.90;;;;;;5052832;28;20025;-77
2023/03/29 04:10:53;;;;;;;36.73;18.30;;;-8.10;99.90;;;;;;5051510;28;20117;-78
2023/03/29 04:13:19;;;;;;;29.97;12.97;;;-8.20;99.90;;;;;;5052712;28;20104;-74
2023/03/29 04:15:48;;;;;;;27.43;13.60;;;-8.20;99.90;;;;;;5051454;28;20098;-75
2023/03/29 04:18:15;;;;;;;24.43;13.40;;;-8.30;99.90;;;;;;5051419;28;20055;-78
2023/03/29 04:20:41;;;;;;;26.27;11.87;;;-8.30;99.90;;;;;;5051351;28;20414;-75
2023/03/29 04:23:07;;;;;;;23.67;12.63;;;-8.40;99.90;;;;;;5056121;28;20045;-78
2023/03/29 04:25:33;;;;;;;23.47;12.13;;;-8.40;99.90;;;;;;5071478;28;20028;-75
2023/03/29 04:27:59;;;;;;;29.60;12.97;;;-8.40;99.90;;;;;;5072575;28;20024;-75
2023/03/29 04:30:25;;;;;;;27.13;14.93;;;-8.50;99.90;;;;;;5072772;28;20363;-75
2023/03/29 04:32:51;;;;;;;29.67;17.00;;;-8.40;99.90;;;;;;5072587;28;20024;-76
2023/03/29 04:35:17;;;;;;;31.40;16.60;;;-8.40;99.90;;;;;;5072574;28;20020;-79
2023/03/29 04:37:42;;;;;;;26.33;14.97;;;-8.40;99.90;;;;;;5073122;28;20490;-78
2023/03/29 04:40:13;;;;;;;37.47;16.83;;;-8.40;99.90;;;;;;5055923;28;20021;-74
2023/03/29 04:42:42;;;;;;;36.50;16.93;;;-8.40;99.90;;;;;;5056337;28;20032;-78
2023/03/29 04:45:08;;;;;;;29.13;16.10;;;-8.40;99.90;;;;;;5055028;28;20029;-78
2023/03/29 04:47:35;;;;;;;30.80;16.07;;;-8.40;99.90;;;;;;5055999;28;20029;-75
2023/03/29 04:50:01;;;;;;;31.07;15.40;;;-8.40;99.90;;;;;;5056179;28;20025;-78
2023/03/29 04:52:31;;;;;;;34.93;17.30;;;-8.30;99.90;;;;;;5056232;28;20033;-75
2023/03/29 04:55:00;;;;;;;35.37;18.53;;;-8.30;99.90;;;;;;5055697;28;20031;-74
2023/03/29 04:57:26;;;;;;;33.53;16.27;;;-8.20;99.90;;;;;;5055615;28;20027;-75
2023/03/29 04:59:52;;;;;;;42.23;19.20;;;-8.20;99.90;;;;;;5057499;28;20494;-76
2023/03/29 05:02:18;;;;;;;63.63;23.23;;;-8.20;99.90;;;;;;5060126;28;20028;-74
2023/03/29 05:04:43;;;;;;;45.10;21.90;;;-8.20;99.90;;;;;;5063840;28;20021;-75
2023/03/29 05:07:10;;;;;;;51.97;21.60;;;-8.20;99.90;;;;;;5059764;28;20043;-75
2023/03/29 05:09:36;;;;;;;57.40;21.97;;;-8.10;99.90;;;;;;5061111;28;20055;-78
2023/03/29 05:12:02;;;;;;;45.50;19.30;;;-8.20;99.90;;;;;;5053347;28;20625;-75
2023/03/29 05:14:27;;;;;;;37.70;17.30;;;-8.10;99.90;;;;;;5055506;28;20028;-78
2023/03/29 05:16:53;;;;;;;46.77;18.47;;;-8.10;99.90;;;;;;5054215;28;20120;-74
2023/03/29 05:19:21;;;;;;;42.93;17.93;;;-8.00;99.90;;;;;;5055509;28;20025;-76
2023/03/29 05:21:49;;;;;;;42.47;18.33;;;-7.90;99.90;;;;;;5060916;28;20033;-78
2023/03/29 05:24:16;;;;;;;51.33;21.20;;;-7.80;99.90;;;;;;5062356;28;20076;-78
2023/03/29 05:26:42;;;;;;;49.90;22.73;;;-7.70;99.90;;;;;;5059830;28;20024;-78
2023/03/29 05:29:08;;;;;;;59.73;25.17;;;-7.50;99.90;;;;;;5062787;28;20449;-78
2023/03/29 05:31:36;;;;;;;61.23;27.50;;;-7.40;99.90;;;;;;5059423;28;20017;-78
2023/03/29 05:34:14;;;;;;;71.47;31.03;;;-7.20;99.90;;;;;;5071320;28;20021;-74
2023/03/29 05:36:41;;;;;;;121.93;52.13;;;-7.00;99.90;;;;;;5062749;28;20033;-75
2023/03/29 05:39:07;;;;;;;153.00;60.13;;;-6.90;99.90;;;;;;5062770;28;20028;-75
2023/03/29 05:41:33;;;;;;;104.03;47.43;;;-6.70;99.90;;;;;;5054418;28;20394;-75
2023/03/29 05:43:59;;;;;;;91.30;42.63;;;-6.50;99.90;;;;;;5054501;28;20152;-78
2023/03/29 05:46:24;;;;;;;106.93;45.90;;;-6.30;99.90;;;;;;5054004;28;20577;-74
2023/03/29 05:48:50;;;;;;;123.67;57.07;;;-6.10;99.90;;;;;;5052924;28;20715;-79
2023/03/29 05:51:17;;;;;;;122.95;53.75;;;-5.90;99.90;;;;;;5053644;28;20032;-79
2023/03/29 05:53:44;;;;;;;122.85;53.72;;;-5.70;99.90;;;;;;5053045;28;20104;-78
2023/03/29 05:56:10;;;;;;;116.15;52.15;;;-5.40;99.90;;;;;;5068989;28;20048;-78
2023/03/29 05:58:38;;;;;;;83.30;37.83;;;-5.20;99.90;;;;;;5072382;28;20029;-78
2023/03/29 06:01:09;;;;;;;81.45;37.25;;;-5.10;99.90;;;;;;5071160;28;20020;-75
2023/03/29 06:03:35;;;;;;;178.70;64.22;;;-4.90;99.90;;;;;;5071153;28;20142;-77
2023/03/29 06:06:02;;;;;;;131.95;50.97;;;-4.70;99.90;;;;;;5071170;28;20133;-78
2023/03/29 06:08:29;;;;;;;130.90;52.55;;;-4.50;99.60;;;;;;5070685;28;20028;-78
2023/03/29 06:11:00;;;;;;;210.93;80.18;;;-4.30;97.70;;;;;;5072512;28;20020;-79
2023/03/29 06:13:27;;;;;;;282.38;116.03;;;-4.20;94.50;;;;;;5072417;28;20028;-78
2023/03/29 06:15:53;;;;;;;229.88;94.40;;;-4.00;93.10;;;;;;5073066;28;20429;-79
2023/03/29 06:18:19;;;;;;;138.50;59.83;;;-3.90;90.30;;;;;;5074094;28;20020;-75
2023/03/29 06:20:52;;;;;;;87.32;35.17;;;-3.70;89.90;;;;;;5074290;28;20494;-75
2023/03/29 06:23:18;;;;;;;65.07;31.65;;;-3.50;88.90;;;;;;5073943;28;20049;-75
2023/03/29 06:25:45;;;;;;;70.47;32.05;;;-3.40;87.60;;;;;;5074143;28;20052;-75
2023/03/29 06:28:12;;;;;;;68.13;33.65;;;-3.20;86.90;;;;;;5074102;28;20020;-78
2023/03/29 06:30:38;;;;;;;66.13;29.35;;;-3.10;86.70;;;;;;5073776;28;20134;-78
2023/03/29 06:33:06;;;;;;;70.53;29.25;;;-2.90;86.40;;;;;;5073855;28;20107;-76
2023/03/29 06:35:33;;;;;;;51.25;26.20;;;-2.80;86.00;;;;;;5072573;28;20066;-76
2023/03/29 06:38:00;;;;;;;53.10;27.10;;;-2.60;85.40;;;;;;5073750;28;20035;-79
2023/03/29 06:40:26;;;;;;;62.22;29.70;;;-2.40;84.00;;;;;;5073938;28;20394;-78
2023/03/29 06:42:56;;;;;;;54.25;28.83;;;-2.30;83.00;;;;;;5073770;28;20043;-75
2023/03/29 06:45:43;;;;;;;56.33;26.75;;;-2.10;82.00;;;;;;5073651;28;20103;-78
2023/03/29 06:48:09;;;;;;;53.58;25.58;;;-1.90;80.40;;;;;;5073593;28;20025;-77
2023/03/29 06:50:35;;;;;;;54.60;28.08;;;-1.80;78.90;;;;;;5072089;28;20016;-79
2023/03/29 06:53:01;;;;;;;54.70;27.75;;;-1.70;79.20;;;;;;5073339;28;20576;-77
2023/03/29 06:55:27;;;;;;;52.35;28.45;;;-1.60;79.10;;;;;;5072297;28;20405;-79
2023/03/29 06:57:53;;;;;;;54.90;26.95;;;-1.40;78.40;;;;;;5073481;28;20016;-78
2023/03/29 07:00:26;;;;;;;53.05;26.30;;;-1.30;77.60;;;;;;5073073;28;20021;-75
2023/03/29 07:02:53;;;;;;;54.38;25.02;;;-1.40;75.70;;;;;;5073477;28;20043;-76
2023/03/29 07:05:20;;;;;;;60.55;28.20;;;-1.20;76.30;;;;;;5072110;28;20028;-76
2023/03/29 07:07:54;;;;;;;49.67;25.23;;;-1.10;75.50;;;;;;5072162;28;20543;-78
2023/03/29 07:10:33;;;;;;;40.20;21.08;;;-1.00;74.90;;;;;;5072084;28;20470;-78
2023/03/29 07:12:59;;;;;;;44.75;22.60;;;-0.80;74.80;;;;;;5071946;28;20063;-79
2023/03/29 07:15:26;;;;;;;41.85;21.20;;;-0.60;73.70;;;;;;5072043;28;20035;-76
2023/03/29 07:17:52;;;;;;;54.15;26.50;;;-0.70;71.50;;;;;;5070980;28;20013;-78
2023/03/29 07:20:18;;;;;;;39.33;22.65;;;-0.60;71.20;;;;;;5052156;28;20020;-76
2023/03/29 07:22:46;;;;;;;74.68;35.72;;;-0.50;70.60;;;;;;5051598;28;20134;-79
2023/03/29 07:25:12;;;;;;;61.85;28.25;;;-0.40;70.20;;;;;;5053454;28;20048;-76
2023/03/29 07:27:40;;;;;;;44.03;20.17;;;-0.40;69.40;;;;;;5053270;28;20021;-76
2023/03/29 07:30:11;;;;;;;43.78;22.17;;;-0.20;68.80;;;;;;5052039;28;20055;-78
2023/03/29 07:32:37;;;;;;;36.88;18.48;;;-0.10;68.50;;;;;;5051844;28;20033;-78
2023/03/29 07:35:07;;;;;;;32.78;17.10;;;0.10;67.90;;;;;;5053515;28;20017;-74
2023/03/29 07:37:36;;;;;;;31.95;17.48;;;0.30;67.90;;;;;;5053151;28;20029;-74
2023/03/29 07:40:14;;;;;;;41.08;19.33;;;0.40;65.40;;;;;;5051868;28;20021;-74
2023/03/29 07:42:42;;;;;;;41.05;19.52;;;0.50;65.00;;;;;;5052863;28;20060;-74
2023/03/29 07:45:09;;;;;;;29.02;16.83;;;0.70;65.20;;;;;;5053079;28;20062;-75
2023/03/29 07:47:34;;;;;;;28.17;16.15;;;0.70;63.10;;;;;;5053079;28;20025;-74
2023/03/29 07:50:00;;;;;;;23.30;12.88;;;0.80;61.50;;;;;;5053210;28;20029;-75
2023/03/29 07:52:29;;;;;;;95.10;40.35;;;0.80;59.80;;;;;;5052943;28;20028;-76
2023/03/29 07:54:58;;;;;;;94.95;38.92;;;1.00;59.00;;;;;;5051812;28;20117;-74
2023/03/29 07:57:25;;;;;;;58.85;25.90;;;1.10;59.10;;;;;;5052858;28;20029;-74
2023/03/29 07:59:51;;;;;;;32.45;15.52;;;1.30;59.30;;;;;;5051811;28;20381;-74
2023/03/29 08:02:18;;;;;;;120.68;46.08;;;1.40;55.40;;;;;;5052774;28;20540;-77
2023/03/29 08:04:44;;;;;;;47.10;22.13;;;1.50;53.40;;;;;;5051712;28;20025;-77
2023/03/29 08:07:09;;;;;;;27.90;12.50;;;1.70;53.50;;;;;;5064105;28;20027;-74
2023/03/29 08:09:36;;;;;;;12.10;7.93;;;1.70;51.80;;;;;;5072965;28;20025;-74
2023/03/29 08:12:02;;;;;;;33.85;14.82;;;1.70;51.60;;;;;;5074763;28;20106;-74
2023/03/29 08:14:27;;;;;;;10.55;6.93;;;1.80;50.70;;;;;;5076427;28;20024;-77
2023/03/29 08:16:53;;;;;;;22.17;12.00;;;1.90;51.50;;;;;;5076713;28;20032;-74
2023/03/29 08:19:19;;;;;;;12.52;6.80;;;2.00;51.30;;;;;;5076510;28;20049;-77
2023/03/29 08:21:44;;;;;;;14.65;7.93;;;2.10;50.20;;;;;;5076421;28;20053;-74
2023/03/29 08:24:10;;;;;;;12.32;7.55;;;2.30;51.10;;;;;;5076513;28;20040;-79
2023/03/29 08:26:36;;;;;;;13.98;6.65;;;2.40;51.30;;;;;;5076323;28;20397;-77
2023/03/29 08:29:02;;;;;;;13.00;6.93;;;2.50;51.40;;;;;;5075079;28;20017;-75
2023/03/29 08:31:28;;;;;;;16.55;7.60;;;2.50;50.20;;;;;;5075087;28;20020;-75
2023/03/29 08:33:54;;;;;;;14.00;6.88;;;2.50;49.70;;;;;;5076212;28;20473;-75
2023/03/29 08:36:19;;;;;;;8.95;6.03;;;2.70;51.70;;;;;;5076210;28;20509;-75
2023/03/29 08:38:46;;;;;;;17.08;7.70;;;2.80;50.40;;;;;;5076186;28;20023;-77
2023/03/29 08:41:47;;;;;;;8.50;5.28;;;2.90;50.40;;;;;;5074809;28;20021;-77
2023/03/29 08:44:37;;;;;;;8.27;5.57;;;3.00;50.30;;;;;;5072361;28;20079;-77
2023/03/29 08:47:35;;;;;;;13.63;8.05;;;3.10;49.90;;;;;;5074670;28;20024;-77
2023/03/29 08:50:00;;;;;;;8.15;5.78;;;3.10;49.40;;;;;;5074066;28;20051;-77
2023/03/29 08:52:40;;;;;;;13.52;6.93;;;3.20;49.40;;;;;;5074534;28;20103;-75
2023/03/29 08:55:12;;;;;;;10.05;6.03;;;3.10;48.90;;;;;;5074493;28;20023;-75
2023/03/29 08:57:49;;;;;;;8.13;5.35;;;3.20;50.10;;;;;;5075829;28;20105;-77
2023/03/29 09:00:18;;;;;;;9.00;6.38;;;3.30;51.40;;;;;;5075882;28;20056;-75
2023/03/29 09:02:45;;;;;;;14.73;6.80;;;3.50;53.00;;;;;;5074472;28;20390;-77
2023/03/29 09:05:24;;;;;;;9.05;6.13;;;3.70;52.70;;;;;;5074466;28;20023;-77
2023/03/29 09:07:49;;;;;;;12.40;6.18;;;3.80;51.70;;;;;;5074391;28;20020;-75
2023/03/29 09:10:17;;;;;;;11.98;6.25;;;3.80;52.20;;;;;;5075661;28;20363;-75
2023/03/29 09:13:33;;;;;;;14.25;6.80;;;3.80;50.90;;;;;;5075734;28;20028;-75
2023/03/29 09:16:12;;;;;;;19.30;10.18;;;3.80;50.10;;;;;;5057999;28;20120;-75
2023/03/29 09:18:54;;;;;;;14.18;7.85;;;3.70;49.20;;;;;;5074253;28;20020;-75
2023/03/29 09:21:30;;;;;;;17.30;9.00;;;3.80;50.30;;;;;;5075375;28;20029;-75
2023/03/29 09:24:07;;;;;;;13.30;8.88;;;3.80;51.50;;;;;;5074807;28;20041;-77
2023/03/29 09:26:44;;;;;;;10.23;7.22;;;3.70;50.80;;;;;;5075476;28;20382;-75
2023/03/29 09:29:25;;;;;;;17.08;9.32;;;4.00;52.10;;;;;;5074063;28;20381;-77
2023/03/29 09:31:53;;;;;;;13.82;7.75;;;4.20;52.80;;;;;;5074075;28;20370;-77
2023/03/29 09:34:23;;;;;;;11.05;6.38;;;4.30;51.60;;;;;;5075110;28;20532;-75
2023/03/29 09:36:52;;;;;;;16.75;7.22;;;4.20;50.90;;;;;;5074994;28;20021;-77
2023/03/29 09:39:21;;;;;;;10.57;6.97;;;4.40;51.40;;;;;;5073127;28;20016;-75
2023/03/29 09:42:16;;;;;;;11.95;5.90;;;4.30;49.70;;;;;;5073457;28;20147;-75
2023/03/29 09:44:53;;;;;;;8.43;5.43;;;4.40;50.40;;;;;;5063177;28;20044;-77
2023/03/29 09:47:29;;;;;;;9.15;6.03;;;4.50;50.30;;;;;;5074310;28;20060;-77
2023/03/29 09:50:01;;;;;;;10.40;5.82;;;4.50;50.50;;;;;;5059560;28;20017;-76
2023/03/29 09:52:26;;;;;;;10.02;6.70;;;4.60;51.20;;;;;;5053080;28;20508;-77
2023/03/29 09:54:52;;;;;;;13.35;6.10;;;4.60;50.30;;;;;;5054358;28;20025;-77
2023/03/29 09:57:19;;;;;;;10.88;6.25;;;4.60;49.50;;;;;;5052892;28;20478;-75
2023/03/29 09:59:47;;;;;;;12.85;7.85;;;4.60;49.60;;;;;;5054433;28;20017;-74
2023/03/29 10:02:13;;;;;;;22.15;12.20;;;4.70;47.90;;;;;;5054234;28;20031;-76
2023/03/29 10:04:43;;;;;;;7.78;4.20;;;4.70;48.40;;;;;;5052866;28;20036;-74
2023/03/29 10:07:19;;;;;;;6.57;4.85;;;4.70;47.30;;;;;;5054452;28;20112;-76
2023/03/29 10:09:45;;;;;;;9.90;4.82;;;4.80;47.90;;;;;;5054115;28;20021;-75
2023/03/29 10:12:12;;;;;;;10.82;5.30;;;4.90;48.40;;;;;;5053904;28;20017;-75
2023/03/29 10:14:44;;;;;;;8.68;5.10;;;5.10;49.10;;;;;;5059591;28;20485;-75
2023/03/29 10:17:15;;;;;;;9.70;4.90;;;5.20;48.60;;;;;;5061600;28;20048;-74
2023/03/29 10:19:54;;;;;;;7.95;5.25;;;5.20;46.10;;;;;;5064568;28;20059;-75
2023/03/29 10:22:26;;;;;;;7.60;4.53;;;5.40;46.00;;;;;;5062760;28;20040;-75
2023/03/29 10:24:54;;;;;;;8.93;5.45;;;5.40;45.60;;;;;;5053601;28;20044;-75
2023/03/29 10:27:26;;;;;;;28.58;13.57;;;5.50;46.20;;;;;;5063198;28;20070;-75
2023/03/29 10:29:54;;;;;;;14.63;7.07;;;5.50;44.30;;;;;;5065767;28;20107;-75
2023/03/29 10:32:37;;;;;;;22.30;11.82;;;5.40;43.80;;;;;;5059661;28;20394;-75
2023/03/29 10:35:09;;;;;;;;;;;5.40;44.70;;;;;;5061331;28;20033;-75
2023/03/29 10:37:43;;;;;;;5.83;4.60;;;5.60;46.70;;;;;;5067892;28;19908;-74
2023/03/29 10:40:32;;;;;;;9.25;5.22;;;5.60;44.90;;;;;;5061586;28;20100;-75
2023/03/29 10:43:13;;;;;;;9.45;5.47;;;5.60;43.90;;;;;;5062244;28;20029;-74
2023/03/29 10:45:40;;;;;;;5.93;3.70;;;5.60;43.00;;;;;;5061505;28;20024;-75
2023/03/29 10:48:11;;;;;;;6.13;3.13;;;5.70;43.30;;;;;;5067074;28;20016;-75
2023/03/29 10:50:37;;;;;;;5.95;2.92;;;5.70;44.40;;;;;;5064994;28;20390;-76
2023/03/29 10:53:11;;;;;;;4.53;3.45;;;5.90;45.10;;;;;;5055419;28;20013;-75
2023/03/29 10:56:04;;;;;;;6.15;3.97;;;5.80;43.40;;;;;;5058930;28;20040;-79
2023/03/29 10:58:48;;;;;;;6.57;3.78;;;5.80;42.00;;;;;;5044826;28;20033;-76
2023/03/29 11:01:23;;;;;;;3.90;3.53;;;6.00;43.40;;;;;;5053457;28;20493;-78
2023/03/29 11:04:17;;;;;;;4.45;3.42;;;6.00;42.80;;;;;;5051831;28;20394;-78
2023/03/29 11:07:23;;;;;;;6.32;3.78;;;6.10;43.10;;;;;;5053350;28;20544;-76
2023/03/29 11:10:16;;;;;;;13.02;7.25;;;6.30;42.70;;;;;;5051979;28;20441;-75
2023/03/29 11:13:16;;;;;;;7.60;4.95;;;6.30;41.00;;;;;;5055513;28;20033;-75
2023/03/29 11:15:50;;;;;;;9.43;4.85;;;6.20;38.80;;;;;;5072205;28;20099;-75
2023/03/29 11:19:04;;;;;;;19.02;10.07;;;6.20;40.20;;;;;;5071997;28;20101;-75
2023/03/29 11:21:48;;;;;;;;;;;6.20;40.00;;;;;;5059499;28;20037;-76
2023/03/29 11:24:26;;;;;;;10.60;4.40;;;6.30;40.20;;;;;;5062119;28;19975;-78
2023/03/29 11:27:10;;;;;;;9.73;5.00;;;6.50;40.20;;;;;;5052082;28;20039;-75
2023/03/29 11:29:57;;;;;;;7.13;3.88;;;6.50;41.40;;;;;;5050384;28;20060;-77
2023/03/29 11:32:25;;;;;;;5.50;3.63;;;6.60;42.00;;;;;;5053901;28;20479;-75
2023/03/29 11:35:02;;;;;;;4.47;3.53;;;6.60;42.20;;;;;;5057200;28;20087;-76
2023/03/29 11:37:51;;;;;;;6.72;4.00;;;6.60;41.70;;;;;;5065505;28;20466;-77
2023/03/29 11:41:01;;;;;;;10.68;6.65;;;6.70;41.50;;;;;;5060433;28;21433;-76
2023/03/29 11:43:48;;;;;;;6.47;3.63;;;6.60;42.40;;;;;;5061045;28;20439;-76
2023/03/29 11:46:29;;;;;;;4.05;2.97;;;6.70;42.30;;;;;;5053547;28;20021;-77
2023/03/29 11:49:18;;;;;;;5.30;3.42;;;6.80;42.40;;;;;;5055580;28;20032;-78
2023/03/29 11:51:58;;;;;;;6.13;3.67;;;6.80;41.90;;;;;;5057068;28;20025;-75
2023/03/29 11:54:40;;;;;;;10.40;5.05;;;6.90;40.40;;;;;;5056634;28;20574;-75
2023/03/29 11:57:29;;;;;;;7.38;4.30;;;6.90;40.00;;;;;;5056622;28;20043;-77
2023/03/29 12:00:04;;;;;;;6.50;3.00;;;7.00;42.10;;;;;;5055143;28;20032;-75
2023/03/29 12:03:05;;;;;;;6.15;3.38;;;7.10;43.10;;;;;;5056032;28;20377;-76
2023/03/29 12:05:42;;;;;;;7.88;4.22;;;7.20;43.10;;;;;;5051811;28;20037;-77
2023/03/29 12:08:24;;;;;;;6.97;3.92;;;7.20;41.60;;;;;;5056219;28;20026;-77
2023/03/29 12:11:02;;;;;;;9.95;5.63;;;7.30;42.30;;;;;;5056409;28;20021;-78
2023/03/29 12:13:31;;;;;;;4.53;3.67;;;7.20;40.90;;;;;;5056262;28;20098;-77
2023/03/29 12:16:05;;;;;;;6.25;4.15;;;7.00;39.50;;;;;;5054404;28;20024;-77
2023/03/29 12:18:54;;;;;;;5.25;3.50;;;6.90;38.90;;;;;;5054809;28;20050;-78
2023/03/29 12:21:23;;;;;;;6.20;3.90;;;7.00;41.00;;;;;;5059611;28;20024;-77
2023/03/29 12:23:50;;;;;;;7.25;4.28;;;7.10;41.50;;;;;;5074618;28;20401;-76
2023/03/29 12:26:33;;;;;;;6.40;3.88;;;7.00;40.90;;;;;;5075614;28;20373;-79
2023/03/29 12:29:10;;;;;;;;;;;7.00;41.30;;;;;;5075202;28;20052;-79
2023/03/29 12:31:57;;;;;;;4.95;3.58;;;7.20;43.30;;;;;;5074275;28;19904;-79
2023/03/29 12:34:44;;;;;;;7.93;4.18;;;7.40;43.00;;;;;;5074456;28;20020;-79
2023/03/29 12:37:38;;;;;;;4.57;3.42;;;7.40;41.10;;;;;;5074924;28;20029;-76
2023/03/29 12:40:16;;;;;;;5.72;3.38;;;7.20;38.30;;;;;;5071830;28;20059;-79
2023/03/29 12:42:45;;;;;;;7.10;3.83;;;7.30;38.70;;;;;;5072052;28;20036;-79
2023/03/29 12:45:33;;;;;;;8.25;4.18;;;7.30;39.80;;;;;;5055583;28;20489;-79
2023/03/29 12:47:59;;;;;;;7.13;3.30;;;7.40;41.30;;;;;;5072617;28;20024;-79
2023/03/29 12:50:32;;;;;;;4.40;3.03;;;7.50;41.40;;;;;;5073291;28;20056;-79
2023/03/29 12:53:14;;;;;;;5.53;3.50;;;7.60;41.60;;;;;;5073041;28;20070;-78
2023/03/29 12:55:42;;;;;;;6.05;3.85;;;7.70;41.50;;;;;;5062364;28;20430;-77
2023/03/29 12:58:25;;;;;;;5.18;3.15;;;7.90;42.10;;;;;;5062300;28;20025;-78
2023/03/29 13:01:04;;;;;;;5.32;3.70;;;8.00;43.30;;;;;;5074344;28;20017;-77